Time;durP1;ratioP1;P1;durP2;ratioP2;P2;SDS_P1;SDS_P2;PMS_P1;PMS_P2;Temp;Humidity;BMP_temperature;BMP_pressure;BME280_temperature;BME280_humidity;BME280_pressure;Samples;Min_cycle;Max_cycle;Signal;HPM_P1;HPM_P2
2020/12/08 00:03:08;;;;;;;35.33;17.75;;;2.00;99.90;;;;;;8294492;28;20483;-67
2020/12/08 00:07:10;;;;;;;36.78;18.15;;;2.00;99.90;;;;;;8294682;28;20076;-68
2020/12/08 00:11:16;;;;;;;33.83;17.52;;;2.00;99.90;;;;;;8293032;28;20120;-69
2020/12/08 00:15:17;;;;;;;35.33;17.98;;;2.10;99.90;;;;;;8292883;28;20109;-68
2020/12/08 00:19:18;;;;;;;33.88;17.33;;;2.10;99.90;;;;;;8294236;28;20109;-68
2020/12/08 00:23:19;;;;;;;35.33;18.40;;;2.30;99.90;;;;;;8292957;28;20442;-67
2020/12/08 00:27:21;;;;;;;35.60;17.02;;;2.30;99.90;;;;;;8299619;28;20037;-68
2020/12/08 00:31:28;;;;;;;35.47;16.92;;;2.20;99.90;;;;;;8302911;28;20034;-68
2020/12/08 00:35:28;;;;;;;31.75;16.73;;;2.30;99.90;;;;;;8304759;28;20033;-68
2020/12/08 00:39:29;;;;;;;35.35;17.75;;;2.40;99.90;;;;;;8303383;28;20079;-68
2020/12/08 00:43:29;;;;;;;30.75;16.02;;;2.00;99.90;;;;;;8304959;28;20033;-68
2020/12/08 00:47:30;;;;;;;33.40;17.25;;;2.10;99.90;;;;;;8304868;28;20029;-68
2020/12/08 00:51:30;;;;;;;28.77;15.40;;;2.10;99.90;;;;;;8304448;28;20399;-68
2020/12/08 00:55:31;;;;;;;29.30;16.40;;;2.00;99.90;;;;;;8304601;28;20028;-68
2020/12/08 00:59:31;;;;;;;30.13;15.80;;;1.80;99.90;;;;;;8304438;28;20072;-68
2020/12/08 01:03:36;;;;;;;25.38;13.57;;;2.20;99.90;;;;;;8303129;28;20483;-68
2020/12/08 01:07:37;;;;;;;29.83;16.02;;;2.10;99.90;;;;;;8304482;28;20471;-68
2020/12/08 01:11:42;;;;;;;16.00;7.20;;;2.00;99.90;;;;;;8304043;28;20376;-68
2020/12/08 01:15:42;;;;;;;24.95;13.45;;;2.00;99.90;;;;;;8303068;28;20030;-68
2020/12/08 01:19:43;;;;;;;30.00;15.68;;;1.90;99.90;;;;;;8304102;28;20025;-67
2020/12/08 01:23:44;;;;;;;25.33;12.93;;;1.80;99.90;;;;;;8302864;28;20026;-67
2020/12/08 01:27:45;;;;;;;26.73;15.15;;;1.90;99.90;;;;;;8304308;28;20390;-68
2020/12/08 01:31:46;;;;;;;28.17;15.27;;;1.80;99.90;;;;;;8303343;28;20033;-68
2020/12/08 01:35:46;;;;;;;30.08;15.98;;;1.90;99.90;;;;;;8303830;28;20030;-68
2020/12/08 01:39:47;;;;;;;27.58;14.52;;;1.70;99.90;;;;;;8297942;28;20054;-68
2020/12/08 01:43:49;;;;;;;27.90;14.82;;;1.60;99.90;;;;;;8298870;28;20491;-68
2020/12/08 01:47:50;;;;;;;28.75;15.18;;;1.70;99.90;;;;;;8298638;28;20029;-68
2020/12/08 01:51:50;;;;;;;26.90;14.73;;;1.80;99.90;;;;;;8297161;28;20037;-68
2020/12/08 01:55:51;;;;;;;27.67;14.70;;;1.60;99.90;;;;;;8298371;28;20137;-68
2020/12/08 01:59:51;;;;;;;26.45;13.50;;;1.60;99.90;;;;;;8296654;28;20018;-67
2020/12/08 02:03:53;;;;;;;27.13;14.82;;;1.60;99.90;;;;;;8285286;28;20026;-71
2020/12/08 02:07:53;;;;;;;32.28;17.23;;;1.60;99.90;;;;;;8265656;28;20080;-70
2020/12/08 02:11:54;;;;;;;28.38;15.55;;;1.50;99.90;;;;;;8263996;28;20030;-71
2020/12/08 02:15:54;;;;;;;29.88;14.85;;;1.40;99.90;;;;;;8265341;28;20081;-70
2020/12/08 02:19:56;;;;;;;29.40;16.20;;;1.70;99.90;;;;;;8263830;28;20027;-71
2020/12/08 02:23:57;;;;;;;31.40;16.50;;;1.50;99.90;;;;;;8265047;28;20108;-70
2020/12/08 02:27:57;;;;;;;30.08;16.48;;;1.50;99.90;;;;;;8264951;28;20058;-71
2020/12/08 02:31:58;;;;;;;27.50;14.50;;;1.50;99.90;;;;;;8269593;28;20419;-70
2020/12/08 02:35:59;;;;;;;26.88;15.48;;;1.50;99.90;;;;;;8296877;28;20697;-71
2020/12/08 02:39:59;;;;;;;28.83;14.95;;;1.40;99.90;;;;;;8296907;28;20026;-71
2020/12/08 02:44:00;;;;;;;29.27;15.70;;;1.30;99.90;;;;;;8295725;28;20037;-71
2020/12/08 02:48:00;;;;;;;28.30;15.73;;;1.40;99.90;;;;;;8296829;28;20704;-70
2020/12/08 02:52:01;;;;;;;29.48;16.52;;;1.30;99.90;;;;;;8295249;28;20081;-71
2020/12/08 02:56:01;;;;;;;26.90;14.52;;;1.40;99.90;;;;;;8295398;28;20030;-71
2020/12/08 03:00:04;;;;;;;28.38;15.45;;;1.50;99.90;;;;;;8296128;28;20487;-70
2020/12/08 03:04:05;;;;;;;31.10;16.90;;;1.20;99.90;;;;;;8296117;28;20057;-71
2020/12/08 03:08:05;;;;;;;27.88;15.23;;;1.30;99.90;;;;;;8296219;28;20040;-70
2020/12/08 03:12:09;;;;;;;30.20;16.05;;;1.40;99.90;;;;;;8295575;28;20048;-71
2020/12/08 03:16:10;;;;;;;29.05;15.13;;;1.40;99.90;;;;;;8294700;28;20032;-70
2020/12/08 03:20:10;;;;;;;29.55;16.33;;;1.40;99.90;;;;;;8295690;28;20559;-72
2020/12/08 03:24:11;;;;;;;28.17;15.30;;;1.30;99.90;;;;;;8295587;28;20022;-72
2020/12/08 03:28:11;;;;;;;30.10;16.75;;;1.30;99.90;;;;;;8294806;28;20080;-71
2020/12/08 03:32:12;;;;;;;27.48;15.45;;;1.30;99.90;;;;;;8309641;28;20511;-71
2020/12/08 03:36:20;;;;;;;26.90;15.93;;;1.30;99.90;;;;;;8284427;28;20109;-71
2020/12/08 03:40:20;;;;;;;28.05;15.20;;;1.20;99.90;;;;;;8293658;28;20032;-72
2020/12/08 03:44:21;;;;;;;25.77;14.10;;;1.40;99.90;;;;;;8293812;28;20032;-70
2020/12/08 03:48:21;;;;;;;26.73;15.27;;;1.50;99.90;;;;;;8295219;28;20026;-71
2020/12/08 03:52:22;;;;;;;26.67;14.68;;;1.40;99.90;;;;;;8294632;28;20123;-70
2020/12/08 03:56:23;;;;;;;24.40;13.98;;;1.40;99.90;;;;;;8293266;28;20513;-70
2020/12/08 04:00:24;;;;;;;29.88;15.52;;;1.30;99.90;;;;;;8292987;28;20026;-72
2020/12/08 04:04:25;;;;;;;26.10;14.65;;;1.20;99.90;;;;;;8284283;28;20032;-72
2020/12/08 04:08:25;;;;;;;29.15;14.65;;;1.10;99.90;;;;;;8262291;28;20030;-70
2020/12/08 04:12:26;;;;;;;28.15;14.02;;;1.40;99.90;;;;;;8261666;28;20034;-70
2020/12/08 04:16:27;;;;;;;25.33;14.00;;;1.40;99.90;;;;;;8261952;28;20030;-71
2020/12/08 04:20:28;;;;;;;29.40;15.32;;;1.30;99.90;;;;;;8261631;28;20161;-70
2020/12/08 04:24:29;;;;;;;27.58;15.05;;;1.30;99.90;;;;;;8260530;28;20030;-71
2020/12/08 04:28:29;;;;;;;29.38;14.65;;;1.40;99.90;;;;;;8261871;28;20035;-70
2020/12/08 04:32:30;;;;;;;27.73;14.82;;;1.40;99.90;;;;;;8270595;28;20034;-70
2020/12/08 04:36:30;;;;;;;29.25;15.80;;;1.20;99.90;;;;;;8293908;28;20476;-71
2020/12/08 04:40:31;;;;;;;31.08;15.30;;;1.20;99.90;;;;;;8293003;28;20018;-70
2020/12/08 04:44:31;;;;;;;25.77;13.90;;;1.10;99.90;;;;;;8294028;28;20068;-72
2020/12/08 04:48:34;;;;;;;32.00;16.08;;;1.20;99.90;;;;;;8294629;28;20030;-70
2020/12/08 04:52:35;;;;;;;30.50;15.95;;;1.20;99.90;;;;;;8293785;28;20037;-71
2020/12/08 04:56:36;;;;;;;26.10;12.60;;;1.00;99.90;;;;;;8293330;28;20034;-71
2020/12/08 05:00:41;;;;;;;29.65;15.15;;;1.20;99.90;;;;;;8293001;28;20022;-70
2020/12/08 05:04:41;;;;;;;31.35;15.70;;;1.10;99.90;;;;;;8291296;28;20083;-72
2020/12/08 05:08:42;;;;;;;27.15;13.98;;;1.30;99.90;;;;;;8288273;28;20655;-71
2020/12/08 05:12:42;;;;;;;23.67;12.32;;;1.20;99.90;;;;;;8291681;28;20041;-68
2020/12/08 05:16:43;;;;;;;27.33;13.80;;;1.20;99.90;;;;;;8297889;28;20040;-68
2020/12/08 05:20:43;;;;;;;34.75;17.25;;;1.20;99.90;;;;;;8297608;28;20018;-67
2020/12/08 05:24:44;;;;;;;24.50;14.10;;;3.90;99.90;;;;;;8297939;28;20041;-68
2020/12/08 05:28:44;;;;;;;25.80;14.75;;;4.10;99.90;;;;;;8298369;28;20399;-67
2020/12/08 05:32:46;;;;;;;27.58;16.23;;;3.60;99.90;;;;;;8291956;28;20041;-67
2020/12/08 05:36:50;;;;;;;26.60;13.27;;;3.40;99.90;;;;;;8284767;28;20443;-66
2020/12/08 05:40:51;;;;;;;26.13;14.32;;;2.20;99.90;;;;;;8289491;28;20117;-67
2020/12/08 05:44:52;;;;;;;31.42;16.35;;;1.30;99.90;;;;;;8292678;28;20475;-67
2020/12/08 05:48:58;;;;;;;30.92;16.42;;;1.10;99.90;;;;;;8293401;28;20032;-67
2020/12/08 05:53:02;;;;;;;35.38;18.60;;;1.00;99.90;;;;;;8289636;28;20030;-68
2020/12/08 05:57:14;;;;;;;35.45;18.38;;;0.90;99.90;;;;;;8294388;28;20037;-67
2020/12/08 06:01:15;;;;;;;34.25;17.48;;;1.10;99.90;;;;;;8295247;28;20030;-68
2020/12/08 06:05:30;;;;;;;35.95;18.42;;;0.90;99.90;;;;;;8281712;28;20109;-75
2020/12/08 06:09:31;;;;;;;30.83;16.17;;;1.00;99.90;;;;;;8261831;28;20041;-72
2020/12/08 06:13:33;;;;;;;33.50;16.85;;;1.20;99.90;;;;;;8279139;28;20033;-71
2020/12/08 06:17:44;;;;;;;33.22;16.30;;;1.20;99.90;;;;;;8286949;28;20377;-72
2020/12/08 06:21:44;;;;;;;31.83;16.05;;;1.20;99.90;;;;;;8265443;28;20027;-71
2020/12/08 06:25:45;;;;;;;27.40;15.38;;;1.00;99.90;;;;;;8262979;28;20554;-71
2020/12/08 06:29:53;;;;;;;29.90;14.77;;;1.00;99.90;;;;;;8264652;28;20042;-72
2020/12/08 06:33:55;;;;;;;30.75;16.25;;;1.00;99.90;;;;;;8283865;28;20034;-73
2020/12/08 06:37:56;;;;;;;27.02;14.68;;;1.00;99.90;;;;;;8297013;28;20022;-71
2020/12/08 06:41:56;;;;;;;33.35;17.08;;;0.80;99.90;;;;;;8296640;28;20026;-73
2020/12/08 06:46:10;;;;;;;26.80;13.43;;;0.90;99.90;;;;;;8296831;28;20395;-71
2020/12/08 06:50:25;;;;;;;28.40;14.30;;;0.90;99.90;;;;;;8299491;28;20052;-72
2020/12/08 06:54:26;;;;;;;33.67;16.92;;;0.70;99.90;;;;;;8324459;28;20032;-71
2020/12/08 06:58:26;;;;;;;32.08;14.35;;;0.60;99.90;;;;;;8303572;28;20037;-71
2020/12/08 07:02:28;;;;;;;23.88;12.88;;;0.70;99.90;;;;;;8274869;28;20034;-72
2020/12/08 07:06:28;;;;;;;32.28;16.08;;;0.60;99.90;;;;;;8295319;28;20033;-71
2020/12/08 07:10:29;;;;;;;31.02;15.77;;;0.50;99.90;;;;;;8263773;28;20116;-72
2020/12/08 07:14:30;;;;;;;34.55;17.38;;;0.60;99.90;;;;;;8263171;28;20045;-71
2020/12/08 07:18:31;;;;;;;29.17;16.63;;;0.70;99.90;;;;;;8286440;28;20455;-71
2020/12/08 07:22:45;;;;;;;26.67;14.32;;;0.70;99.90;;;;;;8293113;28;20021;-71
2020/12/08 07:26:46;;;;;;;25.13;14.10;;;0.80;99.90;;;;;;8289123;28;20034;-72
2020/12/08 07:30:49;;;;;;;25.55;13.98;;;0.80;99.90;;;;;;8289033;28;20037;-72
2020/12/08 07:34:50;;;;;;;24.45;13.10;;;0.90;99.90;;;;;;8295121;28;20053;-73
2020/12/08 07:38:53;;;;;;;28.17;13.75;;;0.90;99.90;;;;;;8294286;28;20026;-72
2020/12/08 07:42:53;;;;;;;27.42;14.93;;;0.80;99.90;;;;;;8293189;28;20640;-72
2020/12/08 07:46:54;;;;;;;25.45;13.75;;;1.00;99.90;;;;;;8293734;28;20128;-73
2020/12/08 07:50:57;;;;;;;26.23;14.18;;;1.10;99.90;;;;;;8293563;28;20022;-73
2020/12/08 07:54:58;;;;;;;25.00;13.27;;;1.10;99.90;;;;;;8293995;28;20364;-74
2020/12/08 07:58:59;;;;;;;25.30;14.02;;;1.10;99.90;;;;;;8277173;28;20022;-73
2020/12/08 08:03:00;;;;;;;22.60;12.73;;;1.10;99.90;;;;;;8273450;28;20026;-72
2020/12/08 08:07:00;;;;;;;23.73;12.82;;;1.20;99.90;;;;;;8293556;28;20036;-73
2020/12/08 08:11:03;;;;;;;23.30;13.02;;;1.20;99.90;;;;;;8293627;28;20026;-73
2020/12/08 08:15:04;;;;;;;21.88;12.43;;;1.40;99.90;;;;;;8292208;28;20428;-72
2020/12/08 08:19:05;;;;;;;20.92;11.80;;;1.40;99.90;;;;;;8293053;28;20479;-74
2020/12/08 08:23:05;;;;;;;22.25;12.63;;;1.60;99.90;;;;;;8294326;28;20072;-74
2020/12/08 08:27:07;;;;;;;22.40;13.02;;;1.60;99.90;;;;;;8293843;28;20117;-72
2020/12/08 08:31:08;;;;;;;22.75;12.05;;;1.60;99.90;;;;;;8294098;28;20052;-75
2020/12/08 08:35:09;;;;;;;24.60;13.20;;;1.80;99.90;;;;;;8283477;28;20026;-71
2020/12/08 08:39:09;;;;;;;17.30;9.80;;;1.60;99.90;;;;;;8293218;28;20448;-71
2020/12/08 08:43:10;;;;;;;22.27;11.65;;;1.70;99.90;;;;;;8293881;28;20022;-73
2020/12/08 08:47:10;;;;;;;23.80;12.98;;;1.50;99.90;;;;;;8293478;28;20029;-72
2020/12/08 08:51:11;;;;;;;23.92;14.00;;;1.50;99.90;;;;;;8300175;28;20044;-72
2020/12/08 08:55:12;;;;;;;25.27;14.32;;;1.40;99.90;;;;;;8299197;28;20546;-71
2020/12/08 08:59:12;;;;;;;25.23;14.00;;;1.30;99.90;;;;;;8296900;28;20510;-74
2020/12/08 09:03:15;;;;;;;24.70;13.98;;;1.40;99.90;;;;;;8289203;28;20033;-71
2020/12/08 09:07:16;;;;;;;22.20;12.38;;;1.60;99.90;;;;;;8267220;28;20030;-72
2020/12/08 09:11:17;;;;;;;20.85;11.77;;;1.70;99.90;;;;;;8267009;28;20053;-72
2020/12/08 09:15:17;;;;;;;21.77;12.57;;;1.80;99.90;;;;;;8266743;28;20038;-72
2020/12/08 09:19:18;;;;;;;21.00;12.05;;;1.80;99.90;;;;;;8266697;28;20432;-72
2020/12/08 09:23:22;;;;;;;20.23;11.18;;;1.90;99.90;;;;;;8271879;28;20030;-71
2020/12/08 09:27:22;;;;;;;22.63;13.13;;;2.10;99.90;;;;;;8266738;28;20053;-71
2020/12/08 09:31:23;;;;;;;25.77;13.85;;;2.30;99.90;;;;;;8266971;28;20727;-74
2020/12/08 09:35:24;;;;;;;21.60;12.43;;;2.40;99.90;;;;;;8298805;28;20026;-72
2020/12/08 09:39:25;;;;;;;21.23;12.38;;;2.60;99.90;;;;;;8296779;28;20022;-72
2020/12/08 09:43:26;;;;;;;19.92;11.88;;;2.80;99.90;;;;;;8297236;28;20060;-74
2020/12/08 09:47:26;;;;;;;18.95;11.35;;;3.00;99.90;;;;;;8287338;28;20037;-72
2020/12/08 09:51:27;;;;;;;19.77;11.30;;;3.20;99.90;;;;;;8297570;28;20509;-72
2020/12/08 09:55:27;;;;;;;19.92;12.02;;;3.30;99.90;;;;;;8296960;28;20022;-72
2020/12/08 09:59:28;;;;;;;21.55;12.30;;;3.30;99.90;;;;;;8297538;28;20033;-72
2020/12/08 10:03:29;;;;;;;23.30;13.05;;;3.30;99.90;;;;;;8297261;28;20029;-73
2020/12/08 10:07:30;;;;;;;18.83;11.50;;;3.30;99.90;;;;;;8298041;28;20434;-72
2020/12/08 10:11:31;;;;;;;20.08;12.10;;;3.30;99.90;;;;;;8291151;28;20415;-73
2020/12/08 10:15:33;;;;;;;21.98;12.85;;;3.20;99.90;;;;;;8268897;28;20134;-71
2020/12/08 10:19:34;;;;;;;22.27;12.57;;;3.20;99.90;;;;;;8265057;28;20030;-72
2020/12/08 10:23:34;;;;;;;21.95;12.40;;;3.10;99.90;;;;;;8264900;28;20059;-72
2020/12/08 10:27:35;;;;;;;24.85;14.00;;;2.80;99.90;;;;;;8264779;28;20027;-73
2020/12/08 10:31:35;;;;;;;24.00;12.32;;;2.20;99.90;;;;;;8265033;28;20023;-72
2020/12/08 10:35:36;;;;;;;21.65;12.18;;;2.30;99.90;;;;;;8295338;28;20029;-72
2020/12/08 10:39:37;;;;;;;22.17;12.25;;;2.50;99.90;;;;;;8295047;28;20387;-72
2020/12/08 10:43:37;;;;;;;18.15;11.10;;;2.60;99.90;;;;;;8295135;28;20061;-69
2020/12/08 10:47:38;;;;;;;20.23;11.75;;;2.80;99.90;;;;;;8296905;28;20032;-69
2020/12/08 10:51:38;;;;;;;22.63;12.48;;;2.50;99.90;;;;;;8296326;28;20022;-70
2020/12/08 10:55:39;;;;;;;21.08;11.40;;;2.60;99.90;;;;;;8294835;28;20034;-70
2020/12/08 10:59:40;;;;;;;20.13;11.07;;;2.70;99.90;;;;;;8296196;28;20372;-68
2020/12/08 11:03:40;;;;;;;25.95;15.00;;;2.80;99.90;;;;;;8294634;28;20054;-69
2020/12/08 11:07:41;;;;;;;17.52;9.98;;;3.10;99.90;;;;;;8294626;28;20026;-70
2020/12/08 11:11:41;;;;;;;19.45;10.82;;;3.10;99.90;;;;;;8294510;28;20519;-68
2020/12/08 11:15:42;;;;;;;16.65;9.63;;;2.80;99.90;;;;;;8293771;28;20469;-69
2020/12/08 11:19:43;;;;;;;16.17;8.68;;;2.30;99.90;;;;;;8294710;28;20033;-69
2020/12/08 11:23:43;;;;;;;17.45;10.02;;;2.00;99.90;;;;;;8295123;28;20483;-70
2020/12/08 11:27:44;;;;;;;18.33;9.55;;;1.90;99.90;;;;;;8293386;28;20030;-69
2020/12/08 11:31:45;;;;;;;15.88;8.70;;;2.00;99.90;;;;;;8295079;28;20037;-69
2020/12/08 11:35:45;;;;;;;17.92;9.95;;;2.30;99.90;;;;;;8293445;28;20049;-69
2020/12/08 11:39:46;;;;;;;18.77;10.88;;;2.40;99.90;;;;;;8305284;28;20033;-69
2020/12/08 11:43:47;;;;;;;17.55;9.57;;;2.80;99.90;;;;;;8292363;28;20044;-69
2020/12/08 11:47:47;;;;;;;15.27;8.98;;;2.90;99.90;;;;;;8292553;28;20033;-69
2020/12/08 11:51:48;;;;;;;15.40;9.30;;;3.00;99.90;;;;;;8290039;28;20057;-70
2020/12/08 11:55:49;;;;;;;14.43;8.73;;;3.10;99.90;;;;;;8290268;28;20119;-70
2020/12/08 11:59:49;;;;;;;14.93;8.93;;;3.20;99.90;;;;;;8294081;28;20030;-67
2020/12/08 12:03:50;;;;;;;16.05;8.68;;;3.10;99.90;;;;;;8294649;28;20018;-69
2020/12/08 12:07:51;;;;;;;17.35;9.57;;;3.20;99.90;;;;;;8292949;28;20129;-69
2020/12/08 12:11:51;;;;;;;17.02;9.65;;;3.40;99.90;;;;;;8294055;28;20053;-70
2020/12/08 12:15:52;;;;;;;17.25;9.50;;;3.60;99.90;;;;;;8294309;28;20479;-69
2020/12/08 12:19:52;;;;;;;15.35;9.05;;;3.70;99.90;;;;;;8293638;28;20045;-70
2020/12/08 12:23:53;;;;;;;18.35;9.98;;;3.80;99.90;;;;;;8293262;28;20096;-69
2020/12/08 12:27:53;;;;;;;14.45;9.32;;;3.90;99.90;;;;;;8269997;28;20056;-69
2020/12/08 12:31:54;;;;;;;16.27;8.95;;;3.80;99.90;;;;;;8276284;28;20529;-68
2020/12/08 12:35:55;;;;;;;16.98;9.77;;;3.90;99.90;;;;;;8292316;28;20506;-69
2020/12/08 12:39:55;;;;;;;16.60;9.57;;;4.00;99.90;;;;;;8292362;28;20491;-70
2020/12/08 12:43:56;;;;;;;16.73;9.68;;;3.90;99.90;;;;;;8292744;28;20033;-70
2020/12/08 12:47:56;;;;;;;18.17;10.77;;;4.00;99.90;;;;;;8293835;28;20018;-69
2020/12/08 12:52:00;;;;;;;18.52;10.65;;;3.90;99.90;;;;;;8292051;28;20380;-69
2020/12/08 12:56:01;;;;;;;20.20;10.90;;;3.60;99.90;;;;;;8293612;28;20022;-70
2020/12/08 13:00:02;;;;;;;19.70;10.73;;;3.70;99.90;;;;;;8281323;28;20089;-68
2020/12/08 13:04:03;;;;;;;18.08;10.35;;;3.60;99.90;;;;;;8288518;28;20021;-70
2020/12/08 13:08:03;;;;;;;18.23;10.00;;;3.40;99.90;;;;;;8293038;28;20029;-69
2020/12/08 13:12:04;;;;;;;20.40;11.45;;;3.40;99.90;;;;;;8289020;28;20053;-68
2020/12/08 13:16:09;;;;;;;23.13;11.25;;;3.30;99.90;;;;;;8284173;28;20037;-69
2020/12/08 13:20:09;;;;;;;19.58;10.88;;;3.30;99.90;;;;;;8292152;28;20164;-70
2020/12/08 13:24:10;;;;;;;20.05;10.77;;;3.10;99.90;;;;;;8291438;28;20026;-69
2020/12/08 13:28:11;;;;;;;18.88;10.48;;;3.30;99.90;;;;;;8291811;28;20574;-70
2020/12/08 13:32:11;;;;;;;21.02;11.10;;;3.30;99.90;;;;;;8283767;28;20089;-70
2020/12/08 13:36:12;;;;;;;22.73;12.05;;;3.00;99.90;;;;;;8296620;28;20030;-69
2020/12/08 13:40:13;;;;;;;21.38;10.98;;;2.90;99.90;;;;;;8293393;28;20571;-69
2020/12/08 13:44:17;;;;;;;22.42;11.65;;;3.00;99.90;;;;;;8293152;28;20108;-69
2020/12/08 13:48:18;;;;;;;25.15;12.40;;;3.00;99.90;;;;;;8298751;28;20168;-70
2020/12/08 13:52:18;;;;;;;23.25;12.18;;;3.10;99.90;;;;;;8296957;28;20022;-69
2020/12/08 13:56:21;;;;;;;20.67;11.27;;;2.90;99.90;;;;;;8298124;28;20026;-69
2020/12/08 14:00:22;;;;;;;23.75;12.00;;;2.70;99.90;;;;;;8296199;28;20022;-70
2020/12/08 14:04:23;;;;;;;25.67;12.63;;;2.80;99.90;;;;;;8297702;28;20128;-69
2020/12/08 14:08:23;;;;;;;26.25;12.90;;;2.80;99.90;;;;;;8296961;28;20107;-69
2020/12/08 14:12:24;;;;;;;25.95;13.02;;;2.70;99.90;;;;;;8296315;28;20037;-69
2020/12/08 14:16:25;;;;;;;24.83;13.80;;;2.60;99.90;;;;;;8295078;28;20026;-69
2020/12/08 14:20:26;;;;;;;26.48;12.57;;;2.70;99.90;;;;;;8293734;28;20034;-69
2020/12/08 14:24:29;;;;;;;27.08;13.77;;;2.70;99.90;;;;;;8282225;28;20060;-69
2020/12/08 14:28:30;;;;;;;28.67;14.05;;;2.70;99.90;;;;;;8284884;28;20022;-69
2020/12/08 14:32:36;;;;;;;30.30;14.10;;;2.60;99.90;;;;;;8290861;28;20439;-69
2020/12/08 14:36:37;;;;;;;30.90;14.88;;;2.50;99.90;;;;;;8293945;28;20022;-70
2020/12/08 14:40:37;;;;;;;30.50;15.40;;;2.30;99.90;;;;;;8296493;28;20539;-70
2020/12/08 14:44:38;;;;;;;27.83;14.10;;;2.40;99.90;;;;;;8296782;28;20034;-68
2020/12/08 14:48:38;;;;;;;28.58;14.77;;;2.40;99.90;;;;;;8296428;28;20077;-69
2020/12/08 14:52:39;;;;;;;30.48;15.15;;;2.40;99.90;;;;;;8275490;28;20480;-69
2020/12/08 14:56:39;;;;;;;29.88;15.20;;;2.30;99.90;;;;;;8279399;28;20026;-70
2020/12/08 15:00:40;;;;;;;32.42;15.88;;;2.10;99.90;;;;;;8263797;28;20034;-69
2020/12/08 15:04:40;;;;;;;30.48;15.40;;;2.00;99.90;;;;;;8290566;28;20030;-68
2020/12/08 15:08:42;;;;;;;30.40;15.65;;;1.80;99.90;;;;;;8295087;28;20026;-68
2020/12/08 15:12:42;;;;;;;31.23;15.55;;;1.80;99.90;;;;;;8291654;28;20130;-70
2020/12/08 15:16:44;;;;;;;34.65;15.68;;;1.80;99.90;;;;;;8294880;28;20399;-68
2020/12/08 15:20:47;;;;;;;38.45;17.38;;;1.60;99.90;;;;;;8291301;28;20021;-70
2020/12/08 15:24:48;;;;;;;38.58;17.40;;;1.60;99.90;;;;;;8291696;28;20041;-69
2020/12/08 15:28:48;;;;;;;37.00;17.27;;;1.60;99.90;;;;;;8293631;28;20112;-71
2020/12/08 15:32:49;;;;;;;34.88;17.08;;;1.70;99.90;;;;;;8294236;28;20503;-71
2020/12/08 15:36:51;;;;;;;39.15;18.88;;;1.80;99.90;;;;;;8292601;28;20087;-75
2020/12/08 15:40:52;;;;;;;38.70;17.75;;;1.80;99.90;;;;;;8292628;28;20017;-72
2020/12/08 15:44:53;;;;;;;36.40;17.65;;;1.80;99.90;;;;;;8288739;28;20037;-71
2020/12/08 15:48:53;;;;;;;38.55;17.85;;;1.80;99.90;;;;;;8284904;28;20037;-71
2020/12/08 15:52:54;;;;;;;37.28;17.63;;;1.80;99.90;;;;;;8290767;28;20113;-71
2020/12/08 15:56:54;;;;;;;38.10;17.48;;;1.90;99.90;;;;;;8293172;28;20025;-71
2020/12/08 16:00:56;;;;;;;35.70;17.58;;;1.90;99.90;;;;;;8292410;28;20561;-71
2020/12/08 16:04:56;;;;;;;38.67;17.73;;;1.70;99.90;;;;;;8285106;28;20037;-72
2020/12/08 16:08:57;;;;;;;39.13;18.92;;;1.60;99.90;;;;;;8287410;28;20117;-72
2020/12/08 16:12:58;;;;;;;39.65;18.88;;;1.70;99.90;;;;;;8289324;28;20034;-71
2020/12/08 16:17:02;;;;;;;37.92;17.85;;;1.70;99.90;;;;;;8278443;28;20495;-71
2020/12/08 16:21:02;;;;;;;42.60;18.58;;;1.60;99.90;;;;;;8280429;28;20029;-70
2020/12/08 16:25:03;;;;;;;41.78;17.60;;;1.60;99.90;;;;;;8272152;28;20036;-72
2020/12/08 16:29:04;;;;;;;38.38;17.70;;;1.70;99.90;;;;;;8268085;28;20034;-70
2020/12/08 16:33:07;;;;;;;44.75;20.00;;;1.60;99.90;;;;;;8276510;28;20081;-69
2020/12/08 16:37:11;;;;;;;45.45;19.88;;;1.50;99.90;;;;;;8284496;28;20386;-70
2020/12/08 16:41:12;;;;;;;32.63;14.52;;;1.50;99.90;;;;;;8269611;28;20014;-70
2020/12/08 16:45:13;;;;;;;49.80;20.10;;;1.60;99.90;;;;;;8286022;28;20030;-69
2020/12/08 16:49:14;;;;;;;46.97;20.90;;;1.30;99.90;;;;;;8287023;28;20061;-70
2020/12/08 16:53:14;;;;;;;48.58;18.48;;;1.20;99.90;;;;;;8280560;28;20038;-70
2020/12/08 16:57:15;;;;;;;45.55;20.25;;;1.20;99.90;;;;;;8280712;28;20792;-70
2020/12/08 17:01:16;;;;;;;51.38;21.17;;;1.30;99.90;;;;;;8276001;28;20022;-71
2020/12/08 17:05:16;;;;;;;44.67;19.65;;;1.50;99.90;;;;;;8291405;28;20491;-70
2020/12/08 17:09:20;;;;;;;44.85;19.27;;;1.50;99.90;;;;;;8290816;28;20026;-70
2020/12/08 17:13:20;;;;;;;42.17;19.17;;;1.70;99.90;;;;;;8303572;28;20037;-76
2020/12/08 17:17:21;;;;;;;42.75;17.77;;;1.50;99.90;;;;;;8299011;28;20034;-71
2020/12/08 17:21:22;;;;;;;41.47;18.00;;;1.50;99.90;;;;;;8289557;28;20487;-69
2020/12/08 17:25:22;;;;;;;45.55;19.13;;;1.60;99.90;;;;;;8283559;28;20121;-72
2020/12/08 17:29:24;;;;;;;43.60;18.48;;;1.40;99.90;;;;;;8290616;28;20522;-70
2020/12/08 17:33:26;;;;;;;40.60;17.92;;;1.50;99.90;;;;;;8268931;28;20033;-67
2020/12/08 17:37:27;;;;;;;40.60;17.88;;;1.50;99.90;;;;;;8284730;28;20026;-66
2020/12/08 17:41:28;;;;;;;46.10;18.75;;;1.60;99.90;;;;;;8276334;28;20093;-70
2020/12/08 17:45:29;;;;;;;36.03;16.70;;;1.80;99.90;;;;;;8283149;28;20054;-71
2020/12/08 17:49:29;;;;;;;43.60;18.60;;;1.70;99.90;;;;;;8274335;28;20053;-71
2020/12/08 17:53:30;;;;;;;44.47;21.27;;;1.50;99.90;;;;;;8282858;28;20109;-69
2020/12/08 17:57:39;;;;;;;35.75;16.88;;;1.50;99.90;;;;;;8288665;28;20171;-69
2020/12/08 18:01:40;;;;;;;39.50;18.02;;;1.60;99.90;;;;;;8291274;28;20049;-71
2020/12/08 18:05:41;;;;;;;37.05;15.85;;;1.40;99.90;;;;;;8288958;28;20032;-70
2020/12/08 18:09:41;;;;;;;37.40;16.52;;;1.40;99.90;;;;;;8282107;28;20136;-70
2020/12/08 18:13:42;;;;;;;33.78;15.68;;;1.40;99.90;;;;;;8292831;28;20664;-71
2020/12/08 18:17:43;;;;;;;37.40;16.23;;;1.50;99.90;;;;;;8288561;28;20491;-71
2020/12/08 18:21:43;;;;;;;35.28;15.20;;;1.40;99.90;;;;;;8290252;28;20026;-70
2020/12/08 18:25:44;;;;;;;34.97;15.25;;;1.30;99.90;;;;;;8291013;28;20401;-72
2020/12/08 18:29:45;;;;;;;36.60;14.77;;;1.30;99.90;;;;;;8289396;28;20034;-71
2020/12/08 18:33:45;;;;;;;29.52;9.57;;;1.30;99.90;;;;;;8291047;28;20032;-70
2020/12/08 18:37:47;;;;;;;33.40;13.85;;;1.20;99.90;;;;;;8306678;28;20034;-70
2020/12/08 18:41:51;;;;;;;32.50;14.48;;;1.20;99.90;;;;;;8274361;28;20448;-71
2020/12/08 18:45:52;;;;;;;35.55;14.98;;;1.10;99.90;;;;;;8290075;28;20073;-70
2020/12/08 18:49:52;;;;;;;36.40;16.15;;;1.10;99.90;;;;;;8281539;28;20037;-70
2020/12/08 18:53:53;;;;;;;28.00;13.25;;;1.10;99.90;;;;;;8279724;28;20491;-72
2020/12/08 18:57:55;;;;;;;40.97;16.92;;;1.10;99.90;;;;;;8284544;28;20436;-70
2020/12/08 19:01:56;;;;;;;40.70;16.25;;;1.10;99.90;;;;;;8269544;28;20052;-71
2020/12/08 19:05:56;;;;;;;37.10;16.30;;;1.10;99.90;;;;;;8275354;28;20559;-68
2020/12/08 19:09:57;;;;;;;40.63;17.65;;;1.00;99.90;;;;;;8253430;28;20049;-68
2020/12/08 19:13:57;;;;;;;38.00;17.45;;;1.10;99.90;;;;;;8268978;28;20475;-66
2020/12/08 19:18:00;;;;;;;36.70;18.08;;;1.00;99.90;;;;;;8289821;28;20034;-68
2020/12/08 19:22:01;;;;;;;35.55;16.27;;;1.00;99.90;;;;;;8285689;28;20022;-68
2020/12/08 19:26:03;;;;;;;33.78;15.23;;;1.00;99.90;;;;;;8288419;28;20061;-67
2020/12/08 19:30:08;;;;;;;34.40;15.73;;;1.10;99.90;;;;;;8282075;28;20486;-67
2020/12/08 19:34:10;;;;;;;31.85;15.30;;;1.20;99.90;;;;;;8284440;28;20643;-67
2020/12/08 19:38:11;;;;;;;36.80;15.00;;;1.30;99.90;;;;;;8286633;28;20045;-68
2020/12/08 19:42:15;;;;;;;28.48;14.02;;;1.30;99.90;;;;;;8277920;28;20721;-66
2020/12/08 19:46:16;;;;;;;36.90;15.35;;;1.20;99.90;;;;;;8283051;28;20045;-68
2020/12/08 19:50:17;;;;;;;37.03;16.45;;;1.30;99.90;;;;;;8284267;28;20029;-67
2020/12/08 19:54:18;;;;;;;38.85;17.17;;;1.30;99.90;;;;;;8275185;28;20030;-68
2020/12/08 19:58:18;;;;;;;40.22;17.02;;;1.30;99.90;;;;;;8288715;28;20128;-67
2020/12/08 20:02:19;;;;;;;41.30;17.95;;;1.40;99.90;;;;;;8287299;28;20037;-67
2020/12/08 20:06:24;;;;;;;38.65;17.58;;;1.40;99.90;;;;;;8282701;28;20060;-67
2020/12/08 20:10:25;;;;;;;43.22;17.17;;;1.50;99.90;;;;;;8273546;28;20487;-68
2020/12/08 20:14:26;;;;;;;44.55;16.92;;;1.30;99.90;;;;;;8268671;28;20049;-67
2020/12/08 20:18:26;;;;;;;40.42;18.20;;;1.20;99.90;;;;;;8272058;28;20027;-68
2020/12/08 20:22:28;;;;;;;44.55;19.23;;;1.10;99.90;;;;;;8269591;28;20038;-68
2020/12/08 20:26:29;;;;;;;46.33;18.65;;;1.10;99.90;;;;;;8269149;28;20034;-68
2020/12/08 20:30:29;;;;;;;45.33;19.13;;;1.20;99.90;;;;;;8261536;28;20443;-67
2020/12/08 20:34:30;;;;;;;47.97;19.13;;;1.20;99.90;;;;;;8275025;28;20026;-68
2020/12/08 20:38:31;;;;;;;45.33;18.80;;;1.30;99.90;;;;;;8280296;28;20019;-68
2020/12/08 20:42:32;;;;;;;46.17;17.80;;;1.30;99.90;;;;;;8288397;28;20022;-68